x

Tanner Bank - 121nm West Of San Diego, Ca (46047) Wave Buoy

1:50 - Thu 29th Sep 2016 All times are PDT. -7 hours from GMT.

  • Sig Wave height 4.3ft
  • Swell Direction
  • Peak Period 8s
  • Average Period 7s
  • Wind
    7mph, 9mph gusts
  • Sea Temp 68°f
  • Ar Temp 62°f
  • Sea Pressure 1014.5mb
  • Tanner Bank - 121nm West Of San Diego, Ca
  • Tanner Bank - 121nm West Of San Diego, Ca

More Historic Weather Station data

Upgrade to MSW Pro to gain access to the past 30 days of data for over 8000 Wavebouys and Weather Stations around the globe.

Join Pro

Comparision Forecast

View Surf forecast
   
Qui 09/29 1:50 4.5ft 8s 7s 7 9 mph 1014.5mb 68f 62f
12:50 4ft 10s 7s 7 9 mph 1014.3mb 68f 63f
Qua 09/28 11:50 4.5ft 10s 8s 11 13 mph 1014mb 68f 64f
10:50 4.5ft 8s 8s 11 13 mph 1014.3mb 68f 64f
9:50 4.5ft 9s 8s 11 13 mph 1014.1mb 69f 64f
8:50 4.5ft 9s 8s 7 9 mph 1013.9mb 68f 64f
7:50 4.5ft 10s 8s 9 11 mph 1013.1mb 68f 65f
6:50 4ft 11s 8s 7 9 mph 1013mb 69f 65f
5:50 4ft 10s 8s 4 7 mph 1012.6mb 70f 69f
4:50 4.5ft 10s 8s 4
mph
1012.7mb 71f 69f
3:50 4.5ft 10s 8s  -  2 mph 1012.7mb 71f 69f
2:50 4.5ft 10s 8s 2 4 mph 1012.7mb 71f 66f
1:50 4.5ft 10s 8s 2 4 mph 1012.8mb 70f 64f
12:50 4.5ft 10s 8s 4 7 mph 1012.9mb 69f 64f
11:50 4.5ft 10s 7s 4 7 mph 1013.1mb 68f 64f
10:50 4.5ft 10s 8s 4 7 mph 1013.4mb 67f 64f
9:50 4.5ft 14s 7s 7
mph
1013.1mb 67f 64f
8:50 4ft 11s 8s 7 9 mph 1012.9mb 67f 64f
7:50 4ft 10s 8s 7
mph
1012.5mb 67f 65f
6:50 4ft 11s 8s 9
mph
1011.7mb 67f 66f
5:50 3.5ft 11s 8s 9
mph
1011.3mb 67f 67f
4:50 4ft 11s 8s 7
mph
1011mb 67f 67f
3:50 3.5ft 10s 8s 4 7 mph 1010.7mb 67f 67f
2:50 4ft 11s 8s 9 11 mph 1010.7mb 67f 68f
1:50 3.5ft 13s 8s 9 11 mph 1011mb 68f 68f
12:50 3.5ft 10s 8s 11 13 mph 1011.1mb 68f 68f
Ter 09/27 11:50 3.5ft 11s 9s 11 13 mph 1011.4mb 68f 68f
10:50 4ft 11s 9s 9 11 mph 1011.2mb 68f 68f
9:50 4ft 13s 9s 7
mph
1010.8mb 68f 68f
8:50 3.5ft 15s 9s 4 7 mph 1010.3mb 68f 68f
7:50 3.5ft 9s 8s 4 7 mph 1009.4mb 68f 69f
6:50 3.5ft 15s 9s 7
mph
1009.4mb 68f 69f
5:50 3.5ft 14s 8s 9
mph
1009.1mb 69f 69f
4:50 4ft 9s 8s 7
mph
1009.1mb 69f 70f
3:50 3.5ft 15s 8s 7 9 mph 1009.3mb 69f 71f
2:50 3.5ft 9s 8s 9 11 mph 1009.3mb 69f 72f
1:50 3.5ft 10s 8s  -  2 mph 1009.5mb 69f 71f
12:50 4ft 15s 8s 4
mph
1010mb 68f 71f
11:50 3.5ft 15s 8s 2 4 mph 1010.4mb 68f 72f
10:50 4ft 14s 8s  -  2 mph 1010.7mb 67f 70f
9:50 3.5ft 14s 8s 2
mph
1010.6mb 66f 69f
8:50 3.5ft 15s 8s  -  2 mph 1010mb 66f 69f
7:50 3.5ft 15s 8s 2 4 mph 1009.8mb 66f 71f
6:50 3.5ft 15s 8s 2 4 mph 1009.8mb 66f 74f
5:50 4ft 14s 9s 7 11 mph 1009.4mb 66f 70f
4:50 3.5ft 15s 8s 7 9 mph 1009.5mb 66f 69f
3:50 4ft 15s 9s 7 9 mph 1009.7mb 66f 69f
2:50 3.5ft 15s 8s 7
mph
1010.1mb 66f 69f
1:50 3.5ft 15s 8s 9 11 mph 1010.5mb 66f 70f
12:50 3.5ft 14s 8s 7 9 mph 1011.1mb 67f 70f
Seg 09/26 11:50 4ft 15s 8s 9 11 mph 1011.4mb 67f 70f
10:50 3.5ft 10s 8s 11
mph
1011.5mb 67f 70f
9:50 4ft 10s 8s 11 13 mph 1011.5mb 67f 71f
8:50 4ft 15s 8s 7
mph
1011.1mb 68f 70f
7:50 4.5ft 15s 8s 7
mph
1010.8mb 68f 71f
6:50 4ft 15s 8s 9
mph
1010.5mb 69f 72f
5:50 4.5ft 10s 8s 9
mph
1010.6mb 69f 72f
4:50 4.5ft 15s 8s 9
mph
1010.8mb 69f 72f
3:50 4.5ft 15s 8s 7 9 mph 1011.3mb 69f 73f
2:50 4.5ft 10s 8s 4 7 mph 1011.7mb 69f 73f
1:50 4.5ft 8s 8s 7
mph
1012.1mb 69f 73f
12:50 4.5ft 10s 8s 4 7 mph 1012.8mb 68f 72f
11:50 4.5ft 15s 8s 4 7 mph 1013.1mb 67f 69f
10:50 4.5ft 15s 8s 4 7 mph 1013.3mb 66f 68f
9:50 4.5ft 10s 8s 4
mph
1013.2mb 65f 67f
8:50 4.5ft 15s 8s 4 7 mph 1013.1mb 65f 67f
7:50 4.5ft 8s 8s 4 7 mph 1012.8mb 65f 66f
6:50 4.5ft 9s 8s 4 7 mph 1012.3mb 65f 65f
5:50 4.5ft 16s 9s 4
mph
1011.9mb 65f 65f
4:50 4.5ft 16s 8s 2 4 mph 1011.7mb 65f 65f
3:50 5ft 15s 9s  -  2 mph 1011.8mb 65f 65f
2:50 4.5ft 15s 8s 2 4 mph 1012.2mb 65f 65f
1:50 4.5ft 15s 8s 4
mph
1012.5mb 65f 65f
12:50 4.5ft 15s 8s 4 7 mph 1012.9mb 65f 66f
Dom 09/25 11:50 4.5ft 16s 7s 7
mph
1013.4mb 65f 66f
10:50 5ft 16s 8s 7 9 mph 1013.6mb 65f 67f
9:50 5ft 15s 7s 11
mph
1013.5mb 65f 67f
8:50 5ft 15s 8s 11 13 mph 1013.1mb 65f 67f
7:50 5ft 15s 7s 11 16 mph 1012.7mb 65f 67f
6:50 4.5ft 16s 8s 11 13 mph 1012.7mb 66f 67f
5:50 5ft 15s 7s 11
mph
1012.8mb 66f 67f
4:50 5ft 15s 7s 9 11 mph 1013.2mb 66f 67f
3:50 5ft 16s 8s 11 13 mph 1013.6mb 66f 66f
2:50 5ft 16s 8s 11 13 mph 1014.2mb 66f 65f
1:50 4.5ft 15s 8s 9 11 mph 1014.9mb 66f 65f
12:50 4.5ft 16s 8s 11 13 mph 1015.5mb 66f 65f
11:50 4.5ft 16s 8s 9
mph
1016.3mb 65f 65f
10:50 4.5ft 16s 8s 9 11 mph 1016.3mb 65f 64f